Ивановка

Карта отелей и гостиниц, располагающихся рядом с аэропортом Ивановка :

Ивановка Марий Эл 56° 58' 58.5012" N, 48° 10' 26.8788" E
Ивановка Марий Эл 56° 58' 58.5012" N, 48° 10' 26.8788" E
Код аэродрома ИКАО
ZEE0
Код аэродрома RU
ЗЕЕ0
Координаты
N56.98292° E048.17413°
Превышение над уровнем моря
142
Основная полоса
12/30
Курс магнитный
123,7/303,7
Длина основной ВПП
420
Ширина основной ВПП
18
Покрытие основной ВПП
Твёрдое (асфальт)
Освещение ВПП
Нет
Тип: 
Аэродром
Класс аэродрома: 
Принадлежность: 
ГА
Статус: 
Недействующий
Сайт: 
E-mail аэродрома: 
Страна: 
Россия
Регион: 
Марий Эл
Город: 
Дополнительная информация: 
Бывшая площадка АХР.

Найти трансфер

С помощью этой формы Вы можете найти трансфер из аэропорта Ивановка в город, аэропорт или вокзал:

Карта места

Javascript is required to view this map.

Погода в аэропортах:

Авиационная погода в Миккели

Регион: 
Погода METAR: 
EFMI 301050Z AUTO 11005KT 9999 -SHRASN OVC005 00/M01 Q1019
Время наблюдения
2020-11-30T10:50:00Z
Температура C
0.0
Точка росы
-1.0
Направление ветра
110
Скорость ветра (узлы)
5
Метео видимость
6.21
Явления погоды
-SHRA -SHSN
Условия полета
IFR

Авиационная погода в Нижневартовске

Регион: 
Погода METAR: 
USNN 170530Z 21005MPS 2800 -SN OVC016 M11/M13 Q0992 R21/39//33 NOSIG RMK QFE739
Время наблюдения
2021-01-17T05:30:00Z
Температура C
-11.0
Точка росы
-13.0
Направление ветра
210
Скорость ветра (узлы)
10
Метео видимость
1.74
Явления погоды
-SN
Условия полета
IFR
Аэропорт подробнее: 

Авиационная погода в Mărculeşti International Airport

Регион: 
Погода METAR: 
LUBM 131300Z 31004KT 9999 -SN OVC013 M00/M03 Q1004 R25/CLRD65
Время наблюдения
2021-01-13T13:00:00Z
Температура C
0.0
Точка росы
-3.0
Направление ветра
310
Скорость ветра (узлы)
4
Метео видимость
6.21
Явления погоды
-SN
Условия полета
MVFR

Авиационная погода в Сочи

Регион: 
Погода METAR: 
URSS 170530Z 14004G14MPS 100V200 9999 -SHRA BKN060CB OVC080 15/03 Q0996 WS ALL RWY R02/290060 R06/290060 NOSIG RMK QFE746 R06/12007G15MPS QFE746
Время наблюдения
2021-01-17T05:30:00Z
Температура C
15.0
Точка росы
3.0
Направление ветра
140
Скорость ветра (узлы)
8
Метео видимость
6.21
Явления погоды
-SHRA
Условия полета
VFR
Аэропорт подробнее: